createdAt,value
2023-11-01T00:01:30.605Z,9.67
2023-11-01T00:03:57.238Z,9.67
2023-11-01T00:06:24.001Z,9.64
2023-11-01T00:08:50.637Z,9.68
2023-11-01T00:11:17.316Z,9.64
2023-11-01T00:13:43.927Z,9.66
2023-11-01T00:16:10.649Z,9.62
2023-11-01T00:18:37.332Z,9.75
2023-11-01T00:21:05.054Z,9.74
2023-11-01T00:23:31.645Z,9.73
2023-11-01T00:25:58.193Z,9.71
2023-11-01T00:28:24.755Z,9.68
2023-11-01T00:30:51.321Z,9.70
2023-11-01T00:33:18.001Z,9.68
2023-11-01T00:35:44.721Z,9.67
2023-11-01T00:38:11.446Z,9.64
2023-11-01T00:40:38.103Z,9.62
2023-11-01T00:43:05.398Z,9.67
2023-11-01T00:45:32.094Z,9.65
2023-11-01T00:47:58.693Z,9.59
2023-11-01T00:50:25.414Z,9.67
2023-11-01T00:52:52.111Z,9.66
2023-11-01T00:55:18.671Z,9.69
2023-11-01T00:57:47.848Z,9.74
2023-11-01T01:00:15.169Z,9.76
2023-11-01T01:02:41.821Z,9.75
2023-11-01T01:05:08.696Z,9.75
2023-11-01T01:07:35.598Z,9.73
2023-11-01T01:10:02.602Z,9.80
2023-11-01T01:12:29.217Z,9.79
2023-11-01T01:14:57.586Z,9.80
2023-11-01T01:17:24.352Z,9.82
2023-11-01T01:19:50.961Z,9.78
2023-11-01T01:22:17.813Z,9.83
2023-11-01T01:24:44.493Z,9.83
2023-11-01T01:27:11.044Z,9.79
2023-11-01T01:29:37.640Z,9.82
2023-11-01T01:32:04.613Z,9.83
2023-11-01T01:34:31.206Z,9.78
2023-11-01T01:36:57.865Z,9.64
2023-11-01T01:39:24.442Z,9.65
2023-11-01T01:41:51.120Z,9.60
2023-11-01T01:44:17.693Z,9.60
2023-11-01T01:46:44.629Z,9.52
2023-11-01T01:49:12.189Z,9.55
2023-11-01T01:51:39.635Z,9.50
2023-11-01T01:54:06.465Z,9.54
2023-11-01T01:56:33.336Z,9.54
2023-11-01T01:58:59.909Z,9.52
2023-11-01T02:01:35.610Z,9.50
2023-11-01T02:04:09.390Z,9.52
2023-11-01T02:06:35.948Z,9.56
2023-11-01T02:09:04.358Z,9.61
2023-11-01T02:11:31.085Z,9.63
2023-11-01T02:13:58.139Z,9.65
2023-11-01T02:16:25.043Z,9.70
2023-11-01T02:18:51.605Z,9.68
2023-11-01T02:21:18.140Z,9.68
2023-11-01T02:23:44.977Z,9.69
2023-11-01T02:26:11.680Z,9.68
2023-11-01T02:28:38.298Z,9.73
2023-11-01T02:31:06.015Z,9.72
2023-11-01T02:33:32.663Z,9.83
2023-11-01T02:35:59.260Z,9.86
2023-11-01T02:38:25.898Z,9.87
2023-11-01T02:40:52.561Z,9.85
2023-11-01T02:43:19.177Z,9.87
2023-11-01T02:45:48.778Z,9.92
2023-11-01T02:48:15.370Z,9.96
2023-11-01T02:50:42.093Z,9.97
2023-11-01T02:53:08.750Z,10.04
2023-11-01T02:55:35.305Z,10.02
2023-11-01T02:58:03.260Z,10.01
2023-11-01T03:00:29.820Z,9.99
2023-11-01T03:02:57.950Z,10.01
2023-11-01T03:05:29.306Z,9.99
2023-11-01T03:07:56.125Z,9.99
2023-11-01T03:10:23.152Z,9.93
2023-11-01T03:12:49.794Z,9.85
2023-11-01T03:15:16.476Z,9.79
2023-11-01T03:17:43.748Z,9.79
2023-11-01T03:20:12.278Z,9.74
2023-11-01T03:22:39.255Z,9.65
2023-11-01T03:25:06.358Z,9.60
2023-11-01T03:27:32.885Z,9.52
2023-11-01T03:29:59.442Z,9.48
2023-11-01T03:32:26.139Z,9.43
2023-11-01T03:34:53.355Z,9.42
2023-11-01T03:37:20.334Z,9.43
2023-11-01T03:39:47.471Z,9.23
2023-11-01T03:42:14.178Z,9.26
2023-11-01T03:44:40.783Z,9.24
2023-11-01T03:47:07.399Z,9.23
2023-11-01T03:49:34.096Z,9.19
2023-11-01T03:52:04.519Z,9.14
2023-11-01T03:54:34.822Z,9.13
2023-11-01T03:57:03.642Z,9.08
2023-11-01T03:59:31.794Z,9.03
2023-11-01T04:01:58.580Z,9.08
2023-11-01T04:04:25.174Z,9.05
2023-11-01T04:06:51.727Z,8.99
2023-11-01T04:09:18.447Z,9.00
2023-11-01T04:11:45.045Z,9.00
2023-11-01T04:14:12.134Z,9.00
2023-11-01T04:16:38.777Z,8.94
2023-11-01T04:19:05.477Z,8.87
2023-11-01T04:21:32.050Z,8.76
2023-11-01T04:23:58.654Z,8.71
2023-11-01T04:26:25.287Z,8.66
2023-11-01T04:28:53.086Z,8.60
2023-11-01T04:31:25.401Z,8.56
2023-11-01T04:33:55.586Z,8.52
2023-11-01T04:36:25.960Z,8.50
2023-11-01T04:38:54.328Z,8.49
2023-11-01T04:41:21.792Z,8.49
2023-11-01T04:43:51.246Z,8.44
2023-11-01T04:46:17.900Z,8.43
2023-11-01T04:48:44.588Z,8.51
2023-11-01T04:51:11.389Z,8.49
2023-11-01T04:53:39.229Z,8.43
2023-11-01T04:56:07.161Z,8.38
2023-11-01T04:58:36.251Z,8.31
2023-11-01T05:01:05.788Z,8.24
2023-11-01T05:03:33.371Z,8.21
2023-11-01T05:06:00.024Z,8.16
2023-11-01T05:08:26.636Z,8.07
2023-11-01T05:10:53.241Z,8.07
2023-11-01T05:13:19.782Z,8.00
2023-11-01T05:15:46.419Z,7.94
2023-11-01T05:18:13.126Z,7.93
2023-11-01T05:20:40.670Z,7.93
2023-11-01T05:23:08.925Z,7.87
2023-11-01T05:25:35.555Z,7.82
2023-11-01T05:28:02.184Z,7.80
2023-11-01T05:30:28.918Z,7.73
2023-11-01T05:32:55.627Z,7.74
2023-11-01T05:35:22.222Z,7.72
2023-11-01T05:37:48.862Z,7.83
2023-11-01T05:40:15.778Z,7.89
2023-11-01T05:42:44.827Z,7.84
2023-11-01T05:45:19.236Z,7.78
2023-11-01T05:47:53.531Z,7.78
2023-11-01T05:50:25.989Z,7.73
2023-11-01T05:52:54.488Z,7.76
2023-11-01T05:55:26.493Z,7.72
2023-11-01T05:58:01.103Z,7.71
2023-11-01T06:00:27.836Z,7.75
2023-11-01T06:02:54.630Z,7.82
2023-11-01T06:05:23.937Z,7.85
2023-11-01T06:07:51.084Z,7.80
2023-11-01T06:10:17.713Z,7.69
2023-11-01T06:12:44.444Z,7.47
2023-11-01T06:15:11.756Z,7.43
2023-11-01T06:17:41.497Z,7.16
2023-11-01T06:20:08.678Z,7.13
2023-11-01T06:22:35.288Z,7.12
2023-11-01T06:25:02.618Z,7.11
2023-11-01T06:27:32.360Z,7.06
2023-11-01T06:29:58.923Z,6.99
2023-11-01T06:32:25.648Z,7.06
2023-11-01T06:34:52.286Z,7.19
2023-11-01T06:37:18.913Z,7.14
2023-11-01T06:39:45.463Z,7.18
2023-11-01T06:42:12.080Z,7.25
2023-11-01T06:44:38.666Z,7.36
2023-11-01T06:47:06.131Z,7.42
2023-11-01T06:49:35.433Z,7.51
2023-11-01T06:52:02.229Z,7.58
2023-11-01T06:54:29.411Z,7.57
2023-11-01T06:57:05.665Z,7.57
2023-11-01T06:59:32.255Z,7.67
2023-11-01T07:01:59.244Z,7.77
2023-11-01T07:04:25.917Z,7.86
2023-11-01T07:06:52.476Z,8.02
2023-11-01T07:09:19.044Z,8.03
2023-11-01T07:11:45.809Z,8.05
2023-11-01T07:14:12.378Z,8.17
2023-11-01T07:16:42.535Z,8.31
2023-11-01T07:19:09.351Z,8.47
2023-11-01T07:21:35.929Z,8.55
2023-11-01T07:24:02.515Z,8.60
2023-11-01T07:26:29.154Z,8.74
2023-11-01T07:28:55.832Z,8.88
2023-11-01T07:31:22.419Z,9.01
2023-11-01T07:33:49.095Z,9.01
2023-11-01T07:36:15.658Z,9.06
2023-11-01T07:38:44.042Z,9.14
2023-11-01T07:41:11.183Z,9.14
2023-11-01T07:43:40.454Z,9.14
2023-11-01T07:46:08.948Z,9.23
2023-11-01T07:48:36.533Z,9.27
2023-11-01T07:51:12.775Z,9.21
2023-11-01T07:53:39.449Z,9.16
2023-11-01T07:56:07.008Z,9.20
2023-11-01T07:58:33.796Z,9.22
2023-11-01T08:01:00.441Z,9.26
2023-11-01T08:03:27.485Z,9.32
2023-11-01T08:05:54.444Z,9.40
2023-11-01T08:08:21.118Z,9.51
2023-11-01T08:10:47.712Z,9.65
2023-11-01T08:13:16.325Z,9.61
2023-11-01T08:15:43.084Z,9.68
2023-11-01T08:18:11.755Z,9.74
2023-11-01T08:20:40.812Z,9.79
2023-11-01T08:23:07.563Z,9.83
2023-11-01T08:25:35.450Z,9.86
2023-11-01T08:28:03.082Z,9.92
2023-11-01T08:30:29.683Z,9.94
2023-11-01T08:32:56.364Z,9.98
2023-11-01T08:35:23.029Z,9.97
2023-11-01T08:37:49.614Z,10.04
2023-11-01T08:40:16.184Z,10.12
2023-11-01T08:42:42.805Z,10.14
2023-11-01T08:45:09.766Z,10.10
2023-11-01T08:47:39.544Z,10.18
2023-11-01T08:50:07.500Z,10.12
2023-11-01T08:52:34.181Z,10.18
2023-11-01T08:55:01.418Z,10.19
2023-11-01T08:57:28.760Z,10.22
2023-11-01T08:59:59.732Z,10.26
2023-11-01T09:02:28.302Z,10.21
2023-11-01T09:04:56.193Z,10.20
2023-11-01T09:07:23.261Z,10.19
2023-11-01T09:09:51.071Z,10.16
2023-11-01T09:12:18.490Z,10.15
2023-11-01T09:14:46.450Z,10.21
2023-11-01T09:17:14.124Z,10.21
2023-11-01T09:19:41.741Z,10.26
2023-11-01T09:22:11.388Z,10.34
2023-11-01T09:24:38.048Z,10.34
2023-11-01T09:27:05.590Z,10.35
2023-11-01T09:29:32.221Z,10.43
2023-11-01T09:31:58.843Z,10.48
2023-11-01T09:34:25.658Z,10.51
2023-11-01T09:36:53.101Z,10.64
2023-11-01T09:39:20.110Z,10.70
2023-11-01T09:41:55.175Z,10.80
2023-11-01T09:44:21.881Z,10.91
2023-11-01T09:46:49.217Z,11.00
2023-11-01T09:49:19.370Z,11.14
2023-11-01T09:51:46.052Z,11.29
2023-11-01T09:54:12.894Z,11.39
2023-11-01T09:56:44.445Z,11.49
2023-11-01T09:59:11.621Z,11.62
2023-11-01T10:01:38.652Z,11.68
2023-11-01T10:04:06.376Z,11.68
2023-11-01T10:06:36.509Z,11.75
2023-11-01T10:09:04.159Z,11.63
2023-11-01T10:11:32.571Z,11.49
2023-11-01T10:14:00.332Z,11.43
2023-11-01T10:16:27.646Z,11.33
2023-11-01T10:18:55.286Z,11.48
2023-11-01T10:21:27.965Z,11.48
2023-11-01T10:23:59.583Z,11.62
2023-11-01T10:26:31.065Z,11.57
2023-11-01T10:28:59.208Z,11.55
2023-11-01T10:31:26.215Z,11.63
2023-11-01T10:33:54.041Z,11.76
2023-11-01T10:36:21.749Z,11.75
2023-11-01T10:38:52.601Z,11.75
2023-11-01T10:41:22.188Z,11.79
2023-11-01T10:43:49.176Z,11.78
2023-11-01T10:46:17.202Z,11.80
2023-11-01T10:48:45.733Z,11.81
2023-11-01T10:51:12.898Z,11.87
2023-11-01T10:53:41.059Z,11.95
2023-11-01T10:56:08.646Z,12.01
2023-11-01T10:58:40.836Z,12.10
2023-11-01T11:01:18.282Z,12.09
2023-11-01T11:04:11.280Z,12.12
2023-11-01T11:06:56.023Z,12.19
2023-11-01T11:09:26.544Z,12.32
2023-11-01T11:12:25.595Z,12.39
2023-11-01T11:14:53.341Z,12.47
2023-11-01T11:17:26.447Z,12.49
2023-11-01T11:20:13.348Z,12.51
2023-11-01T11:22:58.789Z,12.58
2023-11-01T11:25:52.868Z,12.57
2023-11-01T11:28:19.565Z,12.56
2023-11-01T11:30:46.710Z,12.52
2023-11-01T11:33:16.905Z,12.46
2023-11-01T11:35:43.894Z,12.43
2023-11-01T11:38:30.472Z,12.55
2023-11-01T11:41:15.906Z,12.54
2023-11-01T11:44:01.415Z,12.53
2023-11-01T11:46:41.097Z,12.59
2023-11-01T11:49:23.985Z,12.66
2023-11-01T11:51:53.125Z,12.66
2023-11-01T11:54:21.390Z,12.64
2023-11-01T11:56:49.205Z,12.74
2023-11-01T11:59:21.680Z,12.71
2023-11-01T12:01:49.491Z,12.80
2023-11-01T12:04:16.618Z,12.68
2023-11-01T12:06:53.542Z,12.75
2023-11-01T12:09:21.970Z,12.79
2023-11-01T12:12:00.162Z,12.76
2023-11-01T12:14:30.650Z,12.74
2023-11-01T12:17:01.704Z,12.72
2023-11-01T12:19:28.407Z,12.72
2023-11-01T12:21:57.304Z,12.78
2023-11-01T12:24:27.542Z,12.76
2023-11-01T12:27:08.880Z,12.85
2023-11-01T12:29:46.765Z,12.76
2023-11-01T12:32:23.177Z,12.79
2023-11-01T12:34:50.041Z,12.83
2023-11-01T12:37:22.572Z,12.87
2023-11-01T12:40:14.806Z,12.88
2023-11-01T12:42:44.316Z,12.89
2023-11-01T12:45:12.160Z,12.90
2023-11-01T12:47:44.360Z,12.91
2023-11-01T12:50:19.250Z,12.93
2023-11-01T12:52:46.552Z,12.91
2023-11-01T12:55:14.024Z,12.89
2023-11-01T12:57:48.351Z,12.88
2023-11-01T13:00:16.777Z,12.92
2023-11-01T13:02:44.467Z,12.92
2023-11-01T13:05:14.598Z,12.90
2023-11-01T13:07:41.821Z,12.92
2023-11-01T13:10:11.799Z,12.95
2023-11-01T13:12:46.205Z,12.89
2023-11-01T13:15:13.264Z,12.83
2023-11-01T13:17:39.952Z,12.84
2023-11-01T13:20:07.226Z,12.84
2023-11-01T13:22:33.843Z,12.78
2023-11-01T13:25:01.059Z,12.74
2023-11-01T13:27:27.763Z,12.80
2023-11-01T13:29:54.415Z,12.82
2023-11-01T13:32:21.064Z,12.80
2023-11-01T13:34:47.637Z,12.77
2023-11-01T13:37:15.967Z,12.71
2023-11-01T13:39:42.686Z,12.69
2023-11-01T13:42:09.594Z,12.63
2023-11-01T13:44:36.252Z,12.57
2023-11-01T13:47:04.097Z,12.52
2023-11-01T13:49:30.762Z,12.45
2023-11-01T13:51:57.603Z,12.42
2023-11-01T13:54:31.620Z,12.44
2023-11-01T13:57:01.370Z,12.45
2023-11-01T13:59:27.937Z,12.43
2023-11-01T14:01:56.485Z,12.42
2023-11-01T14:04:23.282Z,12.38
2023-11-01T14:06:51.649Z,12.40
2023-11-01T14:09:18.270Z,12.43
2023-11-01T14:11:46.117Z,12.40
2023-11-01T14:14:13.487Z,12.38
2023-11-01T14:16:40.114Z,12.32
2023-11-01T14:19:09.532Z,12.35
2023-11-01T14:21:36.327Z,12.30
2023-11-01T14:24:02.993Z,12.32
2023-11-01T14:26:29.643Z,12.31
2023-11-01T14:28:56.222Z,12.26
2023-11-01T14:31:23.830Z,12.25
2023-11-01T14:33:50.783Z,12.19
2023-11-01T14:36:17.500Z,12.18
2023-11-01T14:38:44.148Z,12.18
2023-11-01T14:41:12.209Z,12.13
2023-11-01T14:43:38.946Z,12.09
2023-11-01T14:46:05.601Z,12.06
2023-11-01T14:48:32.863Z,12.01
2023-11-01T14:50:59.584Z,11.97
2023-11-01T14:53:26.161Z,11.92
2023-11-01T14:55:52.934Z,11.89
2023-11-01T14:58:19.487Z,11.86
2023-11-01T15:00:47.262Z,11.82
2023-11-01T15:03:14.276Z,11.82
2023-11-01T15:05:40.932Z,11.78
2023-11-01T15:08:08.706Z,11.75
2023-11-01T15:10:35.818Z,11.70
2023-11-01T15:13:02.546Z,11.65
2023-11-01T15:15:29.134Z,11.62
2023-11-01T15:17:56.421Z,11.53
2023-11-01T15:20:23.080Z,11.49
2023-11-01T15:22:49.894Z,11.43
2023-11-01T15:25:16.997Z,11.42
2023-11-01T15:27:43.559Z,11.36
2023-11-01T15:30:10.742Z,11.36
2023-11-01T15:32:39.088Z,11.31
2023-11-01T15:35:06.311Z,11.26
2023-11-01T15:37:33.158Z,11.24
2023-11-01T15:40:01.950Z,11.21
2023-11-01T15:42:29.939Z,11.15
2023-11-01T15:44:56.541Z,11.11
2023-11-01T15:47:23.205Z,11.09
2023-11-01T15:49:49.766Z,11.04
2023-11-01T15:52:16.422Z,11.01
2023-11-01T15:54:44.612Z,11.04
2023-11-01T15:57:13.806Z,11.01
2023-11-01T15:59:40.540Z,10.94
2023-11-01T16:02:07.207Z,10.90
2023-11-01T16:04:35.490Z,10.82
2023-11-01T16:07:02.281Z,10.81
2023-11-01T16:09:28.922Z,10.78
2023-11-01T16:11:55.567Z,10.74
2023-11-01T16:14:22.252Z,10.71
2023-11-01T16:16:48.792Z,10.71
2023-11-01T16:19:15.485Z,10.68
2023-11-01T16:21:45.554Z,10.68
2023-11-01T16:24:13.372Z,10.66
2023-11-01T16:26:40.670Z,10.64
2023-11-01T16:29:07.351Z,10.61
2023-11-01T16:31:34.409Z,10.58
2023-11-01T16:34:01.152Z,10.53
2023-11-01T16:36:27.860Z,10.53
2023-11-01T16:38:54.634Z,10.47
2023-11-01T16:41:21.245Z,10.41
2023-11-01T16:43:47.889Z,10.35
2023-11-01T16:46:16.999Z,10.29
2023-11-01T16:48:46.916Z,10.24
2023-11-01T16:51:14.856Z,10.21
2023-11-01T16:53:41.411Z,10.15
2023-11-01T16:56:10.315Z,10.12
2023-11-01T16:58:37.336Z,10.09
2023-11-01T17:01:04.998Z,10.09
2023-11-01T17:03:32.877Z,9.98
2023-11-01T17:06:03.603Z,9.95
2023-11-01T17:08:30.849Z,9.88
2023-11-01T17:10:58.074Z,9.87
2023-11-01T17:13:25.133Z,9.89
2023-11-01T17:15:57.022Z,9.86
2023-11-01T17:18:24.786Z,9.81
2023-11-01T17:20:53.006Z,9.76
2023-11-01T17:23:20.215Z,9.74
2023-11-01T17:25:47.957Z,9.68
2023-11-01T17:28:40.743Z,9.70
2023-11-01T17:31:12.304Z,9.70
2023-11-01T17:33:41.356Z,9.67
2023-11-01T17:36:27.116Z,9.68
2023-11-01T17:38:55.232Z,9.67
2023-11-01T17:41:50.030Z,9.63
2023-11-01T17:44:25.199Z,9.65
2023-11-01T17:46:56.647Z,9.61
2023-11-01T17:49:44.820Z,9.59
2023-11-01T17:52:11.560Z,9.53
2023-11-01T17:54:38.329Z,9.56
2023-11-01T17:57:06.426Z,9.57
2023-11-01T17:59:38.535Z,9.56
2023-11-01T18:02:30.143Z,9.49
2023-11-01T18:04:58.381Z,9.47
2023-11-01T18:07:25.128Z,9.49
2023-11-01T18:09:52.605Z,9.49
2023-11-01T18:12:20.265Z,9.43
2023-11-01T18:14:47.241Z,9.37
2023-11-01T18:17:14.025Z,9.30
2023-11-01T18:19:41.826Z,9.27
2023-11-01T18:22:34.231Z,9.31
2023-11-01T18:25:00.841Z,9.26
2023-11-01T18:27:27.644Z,9.21
2023-11-01T18:29:54.242Z,9.18
2023-11-01T18:32:20.776Z,9.14
2023-11-01T18:34:47.520Z,9.10
2023-11-01T18:37:14.156Z,9.08
2023-11-01T18:39:40.716Z,9.02
2023-11-01T18:42:08.660Z,9.00
2023-11-01T18:44:37.308Z,9.03
2023-11-01T18:47:08.482Z,9.03
2023-11-01T18:49:54.752Z,9.04
2023-11-01T18:52:23.762Z,9.03
2023-11-01T18:54:52.589Z,8.94
2023-11-01T18:57:33.947Z,8.89
2023-11-01T19:00:01.422Z,8.83
2023-11-01T19:02:34.284Z,8.75
2023-11-01T19:05:01.667Z,8.82
2023-11-01T19:07:48.482Z,8.78
2023-11-01T19:10:20.977Z,8.73
2023-11-01T19:12:49.944Z,8.69
2023-11-01T19:15:41.541Z,8.64
2023-11-01T19:18:10.710Z,8.63
2023-11-01T19:20:39.648Z,8.60
2023-11-01T19:23:06.338Z,8.60
2023-11-01T19:25:33.010Z,8.52
2023-11-01T19:27:59.837Z,8.53
2023-11-01T19:30:26.586Z,8.53
2023-11-01T19:32:53.216Z,8.49
2023-11-01T19:35:19.782Z,8.48
2023-11-01T19:37:46.448Z,8.37
2023-11-01T19:40:12.995Z,8.36
2023-11-01T19:42:39.551Z,8.28
2023-11-01T19:45:06.839Z,8.31
2023-11-01T19:47:33.462Z,8.29
2023-11-01T19:50:00.056Z,8.23
2023-11-01T19:52:26.709Z,8.19
2023-11-01T19:54:53.592Z,8.15
2023-11-01T19:57:20.288Z,8.05
2023-11-01T19:59:49.002Z,8.04
2023-11-01T20:02:16.303Z,8.11
2023-11-01T20:04:43.848Z,8.16
2023-11-01T20:07:12.240Z,8.20
2023-11-01T20:09:38.796Z,8.16
2023-11-01T20:12:06.450Z,8.23
2023-11-01T20:14:34.926Z,8.20
2023-11-01T20:17:04.037Z,8.22
2023-11-01T20:19:31.167Z,8.23
2023-11-01T20:21:59.512Z,8.17
2023-11-01T20:24:27.371Z,8.24
2023-11-01T20:26:56.818Z,8.23
2023-11-01T20:32:16.147Z,8.21
2023-11-01T20:34:44.128Z,8.24
2023-11-01T20:37:14.225Z,8.22
2023-11-01T20:39:40.934Z,8.27
2023-11-01T20:42:08.067Z,8.29
2023-11-01T20:44:37.527Z,8.31
2023-11-01T20:47:04.579Z,8.25
2023-11-01T20:49:31.290Z,8.17
2023-11-01T20:52:04.194Z,8.12
2023-11-01T20:54:44.915Z,8.05
2023-11-01T20:57:21.305Z,8.07
2023-11-01T20:59:56.101Z,8.04
2023-11-01T21:02:28.570Z,8.02
2023-11-01T21:05:07.814Z,7.96
2023-11-01T21:07:40.877Z,7.97
2023-11-01T21:10:12.369Z,7.86
2023-11-01T21:12:45.135Z,7.81
2023-11-01T21:15:18.222Z,7.85
2023-11-01T21:17:48.217Z,7.81
2023-11-01T21:20:21.082Z,7.83
2023-11-01T21:22:50.045Z,7.80
2023-11-01T21:25:24.132Z,7.80
2023-11-01T21:27:52.872Z,7.82
2023-11-01T21:30:31.546Z,7.79
2023-11-01T21:33:13.539Z,7.84
2023-11-01T21:35:52.853Z,7.84
2023-11-01T21:38:25.138Z,7.88
2023-11-01T21:40:56.601Z,7.86
2023-11-01T21:43:28.994Z,7.84
2023-11-01T21:46:00.997Z,7.85
2023-11-01T21:48:47.254Z,7.87
2023-11-01T21:51:47.944Z,8.04
2023-11-01T21:54:36.561Z,8.07
2023-11-01T21:57:09.292Z,7.96
2023-11-01T21:59:38.764Z,8.01
2023-11-01T22:02:11.840Z,7.95
2023-11-01T22:05:12.978Z,7.85
2023-11-01T22:07:41.491Z,7.90
2023-11-01T22:10:30.360Z,7.93
2023-11-01T22:13:08.213Z,7.99
2023-11-01T22:15:50.970Z,7.91
2023-11-01T22:21:43.313Z,7.83
2023-11-01T22:24:43.918Z,7.91
2023-11-01T22:27:39.312Z,7.78
2023-11-01T22:30:17.977Z,7.78
2023-11-01T22:33:03.761Z,7.71
2023-11-01T22:35:47.328Z,7.77
2023-11-01T22:38:19.573Z,7.83
2023-11-01T22:41:39.409Z,7.88
2023-11-01T22:44:19.890Z,7.84
2023-11-01T22:46:52.945Z,7.78
2023-11-01T22:49:38.069Z,7.79
2023-11-01T22:52:27.962Z,7.91
2023-11-01T22:55:11.538Z,7.86
2023-11-01T22:58:20.252Z,7.65
2023-11-01T23:01:00.269Z,7.61
2023-11-01T23:03:29.781Z,7.55
2023-11-01T23:05:57.260Z,7.64
2023-11-01T23:08:26.942Z,7.64
2023-11-01T23:11:10.058Z,7.62
2023-11-01T23:13:42.841Z,7.47
2023-11-01T23:16:15.993Z,7.56
2023-11-01T23:18:50.843Z,7.56
2023-11-01T23:21:26.728Z,7.52
2023-11-01T23:24:00.357Z,7.56
2023-11-01T23:27:05.951Z,7.64
2023-11-01T23:29:44.305Z,7.55
2023-11-01T23:32:23.272Z,7.50
2023-11-01T23:35:11.230Z,7.59
2023-11-01T23:38:03.283Z,7.68
2023-11-01T23:41:00.055Z,7.76
2023-11-01T23:43:59.238Z,7.72
2023-11-01T23:46:48.408Z,7.75
2023-11-01T23:50:13.524Z,7.68
2023-11-01T23:53:09.719Z,7.67
2023-11-01T23:55:46.979Z,7.68
2023-11-01T23:58:40.548Z,7.66
